Time;durP1;ratioP1;P1;durP2;ratioP2;P2;SDS_P1;SDS_P2;PMS_P1;PMS_P2;Temp;Humidity;BMP_temperature;BMP_pressure;BME280_temperature;BME280_humidity;BME280_pressure;Samples;Min_cycle;Max_cycle;Signal;HPM_P1;HPM_P2
2022/03/02 00:01:28;;;;;;;17.13;9.63;;;;;;;;;;5030499;28;20238;-86
2022/03/02 00:03:55;;;;;;;11.70;8.93;;;;;;;;;;5031253;28;20207;-86
2022/03/02 00:06:22;;;;;;;11.60;8.70;;;;;;;;;;5030919;28;20241;-86
2022/03/02 00:08:49;;;;;;;15.47;8.77;;;;;;;;;;5031515;28;20210;-86
2022/03/02 00:11:16;;;;;;;12.07;9.67;;;;;;;;;;5030933;28;20716;-86
2022/03/02 00:13:44;;;;;;;15.77;9.90;;;;;;;;;;5031501;28;20237;-86
2022/03/02 00:16:11;;;;;;;15.63;9.83;;;;;;;;;;5030886;28;20332;-86
2022/03/02 00:18:40;;;;;;;14.27;9.17;;;;;;;;;;5031247;28;20202;-86
2022/03/02 00:21:07;;;;;;;10.60;8.00;;;;;;;;;;5031011;28;20234;-86
2022/03/02 00:23:34;;;;;;;13.13;8.93;;;;;;;;;;5031461;28;20205;-86
2022/03/02 00:26:01;;;;;;;17.17;9.83;;;;;;;;;;5030504;28;20270;-86
2022/03/02 00:28:29;;;;;;;12.40;9.53;;;;;;;;;;5031298;28;20203;-86
2022/03/02 00:30:56;;;;;;;14.53;10.27;;;;;;;;;;5030530;28;20252;-86
2022/03/02 00:33:23;;;;;;;15.63;9.50;;;;;;;;;;5031271;28;20571;-85
2022/03/02 00:35:51;;;;;;;17.27;9.80;;;;;;;;;;5030077;28;20705;-86
2022/03/02 00:38:18;;;;;;;13.47;9.23;;;;;;;;;;5031343;28;20210;-86
2022/03/02 00:40:46;;;;;;;15.23;10.43;;;;;;;;;;5030471;28;20419;-86
2022/03/02 00:43:13;;;;;;;9.47;8.53;;;;;;;;;;5030660;28;20202;-86
2022/03/02 00:45:41;;;;;;;13.63;9.33;;;;;;;;;;5030375;28;20237;-86
2022/03/02 00:48:08;;;;;;;14.17;9.83;;;;;;;;;;5031059;28;20222;-86
2022/03/02 00:50:35;;;;;;;11.30;8.93;;;;;;;;;;5030703;28;20265;-86
2022/03/02 00:53:05;;;;;;;16.80;9.43;;;;;;;;;;5031026;28;20202;-86
2022/03/02 00:55:33;;;;;;;16.40;10.37;;;;;;;;;;5030691;28;20238;-87
2022/03/02 00:58:00;;;;;;;13.20;9.43;;;;;;;;;;5030762;28;20197;-86
2022/03/02 01:00:27;;;;;;;17.70;8.93;;;;;;;;;;5029765;28;20233;-86
2022/03/02 01:02:54;;;;;;;12.87;9.80;;;;;;;;;;5030590;28;20642;-86
2022/03/02 01:05:23;;;;;;;13.63;9.07;;;;;;;;;;5031680;28;20238;-86
2022/03/02 01:07:51;;;;;;;13.87;9.83;;;;;;;;;;5034575;28;20193;-86
2022/03/02 01:10:19;;;;;;;14.93;10.10;;;;;;;;;;5037351;28;20237;-86
2022/03/02 01:12:46;;;;;;;13.73;8.93;;;;;;;;;;5038494;28;20635;-86
2022/03/02 01:15:14;;;;;;;14.80;10.30;;;;;;;;;;5034212;28;20237;-85
2022/03/02 01:17:41;;;;;;;13.27;9.90;;;;;;;;;;5034476;28;20212;-86
2022/03/02 01:20:09;;;;;;;15.20;9.63;;;;;;;;;;5034012;28;20300;-85
2022/03/02 01:22:37;;;;;;;14.10;9.70;;;;;;;;;;5034309;28;20228;-86
2022/03/02 01:25:04;;;;;;;15.67;10.00;;;;;;;;;;5033533;28;20222;-86
2022/03/02 01:27:33;;;;;;;19.63;10.50;;;;;;;;;;5034197;28;20205;-86
2022/03/02 01:30:00;;;;;;;13.67;9.37;;;;;;;;;;5033337;28;20212;-86
2022/03/02 01:32:27;;;;;;;15.93;9.97;;;;;;;;;;5034108;28;20208;-86
2022/03/02 01:34:54;;;;;;;14.77;9.57;;;;;;;;;;5033606;28;20237;-86
2022/03/02 01:37:21;;;;;;;14.53;9.87;;;;;;;;;;5033142;28;20234;-85
2022/03/02 01:39:48;;;;;;;13.37;9.30;;;;;;;;;;5034154;28;20617;-86
2022/03/02 01:42:15;;;;;;;13.80;9.47;;;;;;;;;;5033258;28;20265;-86
2022/03/02 01:44:44;;;;;;;17.20;10.07;;;;;;;;;;5033606;28;20235;-86
2022/03/02 01:47:11;;;;;;;13.97;9.90;;;;;;;;;;5032921;28;20713;-85
2022/03/02 01:49:38;;;;;;;13.30;10.40;;;;;;;;;;5033613;28;20670;-86
2022/03/02 01:52:05;;;;;;;15.50;9.63;;;;;;;;;;5032943;28;20237;-86
2022/03/02 01:54:32;;;;;;;15.40;9.57;;;;;;;;;;5033487;28;20598;-86
2022/03/02 01:56:59;;;;;;;15.13;10.17;;;;;;;;;;5032812;28;20239;-85
2022/03/02 01:59:26;;;;;;;15.70;10.17;;;;;;;;;;5033282;28;20212;-86
2022/03/02 02:01:55;;;;;;;17.13;9.90;;;;;;;;;;5030992;28;20227;-85
2022/03/02 02:04:22;;;;;;;12.70;9.67;;;;;;;;;;5032732;28;20236;-85
2022/03/02 02:06:49;;;;;;;16.57;9.40;;;;;;;;;;5032661;28;20269;-86
2022/03/02 02:09:16;;;;;;;13.70;10.37;;;;;;;;;;5033446;28;20208;-86
2022/03/02 02:11:43;;;;;;;13.63;9.63;;;;;;;;;;5033046;28;20235;-86
2022/03/02 02:14:10;;;;;;;14.67;10.03;;;;;;;;;;5033417;28;20747;-85
2022/03/02 02:16:37;;;;;;;15.00;10.13;;;;;;;;;;5033020;28;20231;-85
2022/03/02 02:19:06;;;;;;;12.80;9.43;;;;;;;;;;5033318;28;20207;-85
2022/03/02 02:21:35;;;;;;;13.33;9.77;;;;;;;;;;5032982;28;20261;-86
2022/03/02 02:24:02;;;;;;;15.47;9.37;;;;;;;;;;5033255;28;20211;-86
2022/03/02 02:26:29;;;;;;;13.10;10.10;;;;;;;;;;5032528;28;20242;-85
2022/03/02 02:28:57;;;;;;;12.30;9.13;;;;;;;;;;5032879;28;20554;-85
2022/03/02 02:31:24;;;;;;;17.67;9.80;;;;;;;;;;5032427;28;20240;-85
2022/03/02 02:33:52;;;;;;;15.53;10.10;;;;;;;;;;5033614;28;20266;-86
2022/03/02 02:36:19;;;;;;;15.93;10.13;;;;;;;;;;5033239;28;20289;-86
2022/03/02 02:38:48;;;;;;;13.83;9.27;;;;;;;;;;5032615;28;20696;-85
2022/03/02 02:41:16;;;;;;;14.80;9.27;;;;;;;;;;5032205;28;20719;-85
2022/03/02 02:43:44;;;;;;;14.40;10.67;;;;;;;;;;5032012;28;20209;-85
2022/03/02 02:46:11;;;;;;;13.00;9.73;;;;;;;;;;5012547;28;20248;-85
2022/03/02 02:48:38;;;;;;;14.10;10.10;;;;;;;;;;5025899;28;20658;-86
2022/03/02 02:51:06;;;;;;;13.53;9.60;;;;;;;;;;5032110;28;20248;-85
2022/03/02 02:53:33;;;;;;;13.47;9.63;;;;;;;;;;5032335;28;20222;-86
2022/03/02 02:56:01;;;;;;;12.73;9.10;;;;;;;;;;5031892;28;20603;-85
2022/03/02 02:58:28;;;;;;;13.37;9.67;;;;;;;;;;5032437;28;20205;-85
2022/03/02 03:00:55;;;;;;;13.50;9.50;;;;;;;;;;5031657;28;20706;-85
2022/03/02 03:03:22;;;;;;;12.97;10.03;;;;;;;;;;5032426;28;20207;-85
2022/03/02 03:05:52;;;;;;;14.87;10.50;;;;;;;;;;5031805;28;20239;-85
2022/03/02 03:08:19;;;;;;;12.80;10.20;;;;;;;;;;5032125;28;20660;-85
2022/03/02 03:10:47;;;;;;;19.20;9.53;;;;;;;;;;5031604;28;20232;-85
2022/03/02 03:13:16;;;;;;;17.27;10.47;;;;;;;;;;5032324;28;20288;-85
2022/03/02 03:15:43;;;;;;;13.07;9.47;;;;;;;;;;5031488;28;20346;-85
2022/03/02 03:18:10;;;;;;;14.13;10.17;;;;;;;;;;5032406;28;20207;-85
2022/03/02 03:20:37;;;;;;;16.33;10.47;;;;;;;;;;5031473;28;20234;-86
2022/03/02 03:23:05;;;;;;;11.97;9.33;;;;;;;;;;5031744;28;20199;-85
2022/03/02 03:25:32;;;;;;;14.80;9.97;;;;;;;;;;5031532;28;20235;-85
2022/03/02 03:27:59;;;;;;;16.30;9.93;;;;;;;;;;5031414;28;20268;-85
2022/03/02 03:30:28;;;;;;;13.67;10.00;;;;;;;;;;5031396;28;20234;-85
2022/03/02 03:32:55;;;;;;;13.47;10.13;;;;;;;;;;5031463;28;20702;-86
2022/03/02 03:35:23;;;;;;;14.23;9.93;;;;;;;;;;5031380;28;20242;-85
2022/03/02 03:37:50;;;;;;;15.47;10.57;;;;;;;;;;5031963;28;20195;-85
2022/03/02 03:40:19;;;;;;;33.63;10.60;;;;;;;;;;5031067;28;20234;-85
2022/03/02 03:42:46;;;;;;;16.27;10.03;;;;;;;;;;5031730;28;20276;-85
2022/03/02 03:45:14;;;;;;;13.13;9.77;;;;;;;;;;5031192;28;20246;-85
2022/03/02 03:47:43;;;;;;;12.83;10.03;;;;;;;;;;5031712;28;20218;-85
2022/03/02 03:50:10;;;;;;;18.00;10.83;;;;;;;;;;5031731;28;20194;-85
2022/03/02 03:52:38;;;;;;;18.43;10.90;;;;;;;;;;5032115;28;20238;-85
2022/03/02 03:55:05;;;;;;;13.20;9.87;;;;;;;;;;5031158;28;20219;-85
2022/03/02 03:57:32;;;;;;;18.30;9.73;;;;;;;;;;5032615;28;20218;-85
2022/03/02 03:59:59;;;;;;;14.07;10.17;;;;;;;;;;5050032;28;20202;-85
2022/03/02 04:02:26;;;;;;;15.10;10.97;;;;;;;;;;5053957;28;20203;-85
2022/03/02 04:04:55;;;;;;;14.27;10.27;;;;;;;;;;5075670;22;20230;-82
2022/03/02 04:07:22;;;;;;;18.03;10.77;;;;;;;;;;5036191;28;20572;-81
2022/03/02 04:09:49;;;;;;;15.13;10.93;;;;;;;;;;5027567;28;20263;-82
2022/03/02 04:12:17;;;;;;;15.30;10.70;;;;;;;;;;5021138;28;20583;-82
2022/03/02 04:14:45;;;;;;;16.50;10.27;;;;;;;;;;5019120;28;20255;-82
2022/03/02 04:17:12;;;;;;;17.47;9.73;;;;;;;;;;5001948;28;20239;-82
2022/03/02 04:19:40;;;;;;;17.50;10.23;;;;;;;;;;5000627;28;20192;-82
2022/03/02 04:22:09;;;;;;;14.33;9.73;;;;;;;;;;5000042;28;20225;-82
2022/03/02 04:24:36;;;;;;;13.33;10.03;;;;;;;;;;4999202;28;20206;-82
2022/03/02 04:27:03;;;;;;;14.23;10.53;;;;;;;;;;4999416;28;20244;-82
2022/03/02 04:29:30;;;;;;;17.63;10.17;;;;;;;;;;4998988;28;20192;-82
2022/03/02 04:31:57;;;;;;;14.17;10.10;;;;;;;;;;4998504;28;20681;-82
2022/03/02 04:34:24;;;;;;;13.00;9.77;;;;;;;;;;4999635;28;20212;-83
2022/03/02 04:36:51;;;;;;;14.70;9.93;;;;;;;;;;4998847;28;20239;-83
2022/03/02 04:39:20;;;;;;;15.03;10.77;;;;;;;;;;4999497;28;20208;-82
2022/03/02 04:41:47;;;;;;;15.33;10.40;;;;;;;;;;5001736;28;20228;-82
2022/03/02 04:44:14;;;;;;;17.80;11.20;;;;;;;;;;5003299;28;20196;-82
2022/03/02 04:46:41;;;;;;;12.80;9.80;;;;;;;;;;5002641;28;20239;-82
2022/03/02 04:49:12;;;;;;;16.90;10.77;;;;;;;;;;5002829;28;20218;-83
2022/03/02 04:51:39;;;;;;;16.23;10.87;;;;;;;;;;5001281;28;20275;-83
2022/03/02 04:54:07;;;;;;;13.60;10.67;;;;;;;;;;5002724;28;20632;-82
2022/03/02 04:56:36;;;;;;;14.00;10.10;;;;;;;;;;5000735;28;20247;-82
2022/03/02 04:59:03;;;;;;;19.17;10.10;;;;;;;;;;5001584;28;20219;-83
2022/03/02 05:01:30;;;;;;;19.40;10.57;;;;;;;;;;5001065;28;20243;-82
2022/03/02 05:03:57;;;;;;;17.30;10.97;;;;;;;;;;5002014;28;20723;-82
2022/03/02 05:06:24;;;;;;;15.67;10.70;;;;;;;;;;4994252;28;20231;-82
2022/03/02 05:08:51;;;;;;;15.93;11.23;;;;;;;;;;4999080;28;20204;-82
2022/03/02 05:11:18;;;;;;;13.83;10.60;;;;;;;;;;4991721;28;20232;-82
2022/03/02 05:13:47;;;;;;;16.43;11.47;;;;;;;;;;4987077;28;20204;-82
2022/03/02 05:16:14;;;;;;;17.83;11.43;;;;;;;;;;4989674;28;20238;-82
2022/03/02 05:18:44;;;;;;;15.90;11.43;;;;;;;;;;5001816;28;20200;-82
2022/03/02 05:21:11;;;;;;;16.13;10.87;;;;;;;;;;4992554;28;20319;-82
2022/03/02 05:23:38;;;;;;;16.73;11.70;;;;;;;;;;4982895;28;20795;-82
2022/03/02 05:26:05;;;;;;;13.50;10.70;;;;;;;;;;4994784;28;20239;-82
2022/03/02 05:28:33;;;;;;;16.77;11.50;;;;;;;;;;5000636;28;20208;-83
2022/03/02 05:31:02;;;;;;;17.27;11.00;;;;;;;;;;4997555;28;20228;-83
2022/03/02 05:33:29;;;;;;;20.13;10.97;;;;;;;;;;4997849;28;20228;-84
2022/03/02 05:35:56;;;;;;;16.17;11.57;;;;;;;;;;4996865;28;20243;-83
2022/03/02 05:38:23;;;;;;;15.10;9.97;;;;;;;;;;4999557;28;20208;-83
2022/03/02 05:40:51;;;;;;;17.30;11.37;;;;;;;;;;4999231;28;20236;-82
2022/03/02 05:43:18;;;;;;;16.07;11.17;;;;;;;;;;4999274;28;20196;-83
2022/03/02 05:45:45;;;;;;;15.77;10.43;;;;;;;;;;4991156;28;20726;-83
2022/03/02 05:48:14;;;;;;;15.80;11.03;;;;;;;;;;4998778;28;20204;-81
2022/03/02 05:50:41;;;;;;;18.27;11.73;;;;;;;;;;4992751;28;20255;-82
2022/03/02 05:53:08;;;;;;;15.57;11.23;;;;;;;;;;4999112;28;20705;-83
2022/03/02 05:55:35;;;;;;;17.80;11.00;;;;;;;;;;4997787;28;20314;-83
2022/03/02 05:58:02;;;;;;;17.03;11.47;;;;;;;;;;4994627;28;20236;-83
2022/03/02 06:00:29;;;;;;;14.43;10.90;;;;;;;;;;4997510;28;20691;-82
2022/03/02 06:02:56;;;;;;;17.23;10.90;;;;;;;;;;4999781;28;20201;-83
2022/03/02 06:05:25;;;;;;;14.23;10.73;;;;;;;;;;4997890;28;20236;-83
2022/03/02 06:07:52;;;;;;;15.63;11.90;;;;;;;;;;4982302;28;20213;-85
2022/03/02 06:10:19;;;;;;;14.27;11.00;;;;;;;;;;4984982;28;20602;-82
2022/03/02 06:12:47;;;;;;;16.17;10.80;;;;;;;;;;4996290;28;20224;-84
2022/03/02 06:15:15;;;;;;;18.73;10.80;;;;;;;;;;4991649;28;20693;-82
2022/03/02 06:17:42;;;;;;;19.03;11.47;;;;;;;;;;4989509;28;20600;-82
2022/03/02 06:20:10;;;;;;;15.30;10.83;;;;;;;;;;4996348;28;20809;-83
2022/03/02 06:22:39;;;;;;;17.13;11.10;;;;;;;;;;4995287;28;20204;-82
2022/03/02 06:25:07;;;;;;;13.23;10.57;;;;;;;;;;5002614;28;20229;-81
2022/03/02 06:27:34;;;;;;;19.53;11.73;;;;;;;;;;5001042;28;20319;-82
2022/03/02 06:30:01;;;;;;;14.93;10.83;;;;;;;;;;5000476;28;20208;-82
2022/03/02 06:32:29;;;;;;;17.40;10.90;;;;;;;;;;5002512;28;20228;-80
2022/03/02 06:34:58;;;;;;;15.77;10.70;;;;;;;;;;5004313;28;20234;-81
2022/03/02 06:37:26;;;;;;;17.53;11.93;;;;;;;;;;5004743;28;20208;-80
2022/03/02 06:39:54;;;;;;;13.47;10.43;;;;;;;;;;5007887;28;20227;-80
2022/03/02 06:42:24;;;;;;;19.37;11.80;;;;;;;;;;4995237;28;20229;-82
2022/03/02 06:44:55;;;;;;;16.10;11.17;;;;;;;;;;4993854;28;20261;-81
2022/03/02 06:47:25;;;;;;;17.87;11.40;;;;;;;;;;4986190;28;20248;-82
2022/03/02 06:50:00;;;;;;;20.27;12.00;;;;;;;;;;4993688;28;20205;-82
2022/03/02 06:52:28;;;;;;;13.83;10.83;;;;;;;;;;4993448;28;20225;-82
2022/03/02 06:54:58;;;;;;;17.20;10.83;;;;;;;;;;4993794;28;20889;-82
2022/03/02 06:57:28;;;;;;;16.33;11.23;;;;;;;;;;4995193;28;20601;-82
2022/03/02 07:00:00;;;;;;;17.00;10.80;;;;;;;;;;4994722;28;20207;-82
2022/03/02 07:02:29;;;;;;;17.33;11.30;;;;;;;;;;4995929;28;20191;-82
2022/03/02 07:04:57;;;;;;;19.37;12.07;;;;;;;;;;4995428;28;20241;-82
2022/03/02 07:07:25;;;;;;;20.43;12.53;;;;;;;;;;4995707;28;20930;-82
2022/03/02 07:09:53;;;;;;;21.20;11.93;;;;;;;;;;4995410;28;20234;-82
2022/03/02 07:12:23;;;;;;;17.80;11.37;;;;;;;;;;4995000;28;20230;-82
2022/03/02 07:14:52;;;;;;;17.97;11.50;;;;;;;;;;4995440;28;20287;-82
2022/03/02 07:17:19;;;;;;;22.47;11.13;;;;;;;;;;4996115;28;20233;-82
2022/03/02 07:19:46;;;;;;;18.27;12.00;;;;;;;;;;4996229;28;20195;-81
2022/03/02 07:22:13;;;;;;;17.33;12.00;;;;;;;;;;4994816;28;20240;-82
2022/03/02 07:24:41;;;;;;;14.57;10.80;;;;;;;;;;4996282;28;20241;-82
2022/03/02 07:27:08;;;;;;;18.93;11.37;;;;;;;;;;4996240;28;20245;-82
2022/03/02 07:29:37;;;;;;;17.87;11.43;;;;;;;;;;4997706;28;20521;-82
2022/03/02 07:32:05;;;;;;;18.90;11.00;;;;;;;;;;4997169;28;20249;-82
2022/03/02 07:34:33;;;;;;;20.13;10.90;;;;;;;;;;4998171;28;20214;-82
2022/03/02 07:37:01;;;;;;;16.07;11.43;;;;;;;;;;4995787;28;20239;-82
2022/03/02 07:39:28;;;;;;;18.77;11.57;;;;;;;;;;4997255;28;20665;-82
2022/03/02 07:41:55;;;;;;;20.97;11.00;;;;;;;;;;4995796;28;20234;-82
2022/03/02 07:44:22;;;;;;;16.93;11.00;;;;;;;;;;4996570;28;20207;-82
2022/03/02 07:46:51;;;;;;;20.07;11.23;;;;;;;;;;4995890;28;20235;-82
2022/03/02 07:49:20;;;;;;;17.57;10.80;;;;;;;;;;4997071;28;20203;-82
2022/03/02 07:51:48;;;;;;;18.67;11.27;;;;;;;;;;4996504;28;20235;-82
2022/03/02 07:54:16;;;;;;;17.90;10.63;;;;;;;;;;4997339;28;20232;-82
2022/03/02 07:56:45;;;;;;;14.63;9.80;;;;;;;;;;5000104;28;20297;-82
2022/03/02 07:59:12;;;;;;;13.53;9.37;;;;;;;;;;4998462;28;20215;-82
2022/03/02 08:01:41;;;;;;;13.13;8.93;;;;;;;;;;4996594;28;20234;-83
2022/03/02 08:04:10;;;;;;;13.40;9.43;;;;;;;;;;4997365;28;20281;-82
2022/03/02 08:06:39;;;;;;;12.73;9.37;;;;;;;;;;5002002;28;20348;-82
2022/03/02 08:09:06;;;;;;;12.87;8.70;;;;;;;;;;5008098;28;20207;-83
2022/03/02 08:11:34;;;;;;;14.03;9.30;;;;;;;;;;5010196;28;20242;-83
2022/03/02 08:14:03;;;;;;;18.27;10.20;;;;;;;;;;5011659;28;20290;-83
2022/03/02 08:16:31;;;;;;;16.97;9.33;;;;;;;;;;5014111;28;20262;-82
2022/03/02 08:18:59;;;;;;;11.93;9.17;;;;;;;;;;5013363;28;20211;-82
2022/03/02 08:21:30;;;;;;;13.10;9.20;;;;;;;;;;5009521;28;20242;-82
2022/03/02 08:23:58;;;;;;;12.03;8.80;;;;;;;;;;5011547;28;20472;-82
2022/03/02 08:26:25;;;;;;;14.83;9.90;;;;;;;;;;5006017;28;20250;-83
2022/03/02 08:28:55;;;;;;;13.37;9.10;;;;;;;;;;5004152;28;20233;-83
2022/03/02 08:31:22;;;;;;;14.27;8.57;;;;;;;;;;5001238;28;20239;-83
2022/03/02 08:33:50;;;;;;;12.30;9.47;;;;;;;;;;5002224;28;20219;-83
2022/03/02 08:36:21;;;;;;;12.30;8.93;;;;;;;;;;4996746;28;20319;-84
2022/03/02 08:38:50;;;;;;;12.73;8.53;;;;;;;;;;4997723;28;20625;-84
2022/03/02 08:41:17;;;;;;;9.80;8.07;;;;;;;;;;4998502;28;20236;-84
2022/03/02 08:43:45;;;;;;;9.77;6.60;;;;;;;;;;4998502;28;20208;-84
2022/03/02 08:46:13;;;;;;;9.87;6.50;;;;;;;;;;4997728;28;20259;-83
2022/03/02 08:48:40;;;;;;;11.53;7.37;;;;;;;;;;4999920;28;20235;-84
2022/03/02 08:51:07;;;;;;;12.13;7.90;;;;;;;;;;4999539;28;20243;-83
2022/03/02 08:53:35;;;;;;;7.63;6.63;;;;;;;;;;4999389;28;20327;-83
2022/03/02 08:56:06;;;;;;;8.60;7.27;;;;;;;;;;4998767;28;20247;-83
2022/03/02 08:58:33;;;;;;;16.93;8.17;;;;;;;;;;4998731;28;20214;-84
2022/03/02 09:01:01;;;;;;;11.83;7.60;;;;;;;;;;4998251;28;20235;-83
2022/03/02 09:03:28;;;;;;;9.30;6.70;;;;;;;;;;4998850;28;20212;-84
2022/03/02 09:05:55;;;;;;;10.47;7.10;;;;;;;;;;4997540;28;20244;-84
2022/03/02 09:08:23;;;;;;;11.37;7.40;;;;;;;;;;4998974;28;20212;-84
2022/03/02 09:10:50;;;;;;;7.70;6.83;;;;;;;;;;4997957;28;20244;-84
2022/03/02 09:13:18;;;;;;;9.97;7.57;;;;;;;;;;4998451;28;20231;-84
2022/03/02 09:15:45;;;;;;;9.47;7.37;;;;;;;;;;4998137;28;20243;-84
2022/03/02 09:18:13;;;;;;;13.00;8.00;;;;;;;;;;4999996;28;20213;-83
2022/03/02 09:20:41;;;;;;;9.43;7.27;;;;;;;;;;5000179;28;20234;-83
2022/03/02 09:23:10;;;;;;;9.50;7.03;;;;;;;;;;5000134;28;20208;-83
2022/03/02 09:25:39;;;;;;;10.83;7.23;;;;;;;;;;4999163;28;20236;-82
2022/03/02 09:28:08;;;;;;;10.90;7.63;;;;;;;;;;5001658;28;20210;-82
2022/03/02 09:30:37;;;;;;;10.10;6.93;;;;;;;;;;5000752;28;20247;-82
2022/03/02 09:33:04;;;;;;;8.37;6.53;;;;;;;;;;5001838;28;20239;-81
2022/03/02 09:35:32;;;;;;;8.07;5.97;;;;;;;;;;5000214;28;20255;-82
2022/03/02 09:37:59;;;;;;;8.97;6.40;;;;;;;;;;5001069;28;20641;-82
2022/03/02 09:40:27;;;;;;;8.63;6.70;;;;;;;;;;5002035;28;20232;-82
2022/03/02 09:42:56;;;;;;;8.33;6.57;;;;;;;;;;5001746;28;20201;-82
2022/03/02 09:45:25;;;;;;;8.87;6.20;;;;;;;;;;5000354;28;20251;-83
2022/03/02 09:47:56;;;;;;;8.40;6.07;;;;;;;;;;5000496;28;20203;-82
2022/03/02 09:50:24;;;;;;;6.90;6.00;;;;;;;;;;4999987;28;20305;-82
2022/03/02 09:52:53;;;;;;;7.70;6.37;;;;;;;;;;4998420;28;20219;-82
2022/03/02 09:55:22;;;;;;;8.43;6.87;;;;;;;;;;4997525;28;20246;-82
2022/03/02 09:57:50;;;;;;;7.50;6.03;;;;;;;;;;4996738;28;20212;-83
2022/03/02 10:00:18;;;;;;;7.93;6.03;;;;;;;;;;4997522;28;20255;-82
2022/03/02 10:02:46;;;;;;;9.23;6.23;;;;;;;;;;4997940;28;20322;-82
2022/03/02 10:05:16;;;;;;;7.97;6.33;;;;;;;;;;5157925;23;21498;-90
2022/03/02 10:07:45;;;;;;;9.60;6.50;;;;;;;;;;5041371;28;20207;-90
2022/03/02 10:10:14;;;;;;;8.80;6.33;;;;;;;;;;5039287;28;20226;-91
2022/03/02 10:12:42;;;;;;;8.50;6.00;;;;;;;;;;5040766;28;20199;-91
2022/03/02 10:15:12;;;;;;;8.17;6.40;;;;;;;;;;5039094;28;20772;-90
2022/03/02 10:17:41;;;;;;;9.93;6.40;;;;;;;;;;5041688;28;20260;-90
2022/03/02 10:20:13;;;;;;;9.63;6.17;;;;;;;;;;5040996;28;20336;-90
2022/03/02 10:23:17;;;;;;;6.57;5.90;;;;;;;;;;5042919;28;20202;-90
2022/03/02 10:26:01;;;;;;;7.60;6.57;;;;;;;;;;5041807;28;20753;-90
2022/03/02 10:31:31;;;;;;;7.93;6.30;;;;;;;;;;5042368;28;20704;-90
2022/03/02 10:34:04;;;;;;;11.70;6.73;;;;;;;;;;5037175;28;20234;-90
2022/03/02 10:36:36;;;;;;;8.90;6.37;;;;;;;;;;5042028;28;20251;-91
2022/03/02 10:39:09;;;;;;;9.73;6.10;;;;;;;;;;5050709;28;20244;-90
2022/03/02 10:41:43;;;;;;;8.83;6.17;;;;;;;;;;5042497;28;20251;-90
2022/03/02 10:44:17;;;;;;;8.83;6.27;;;;;;;;;;5042526;28;20251;-91
2022/03/02 10:46:48;;;;;;;9.33;6.20;;;;;;;;;;5040456;28;20263;-90
2022/03/02 10:49:21;;;;;;;8.27;6.40;;;;;;;;;;5041316;28;20200;-90
2022/03/02 10:51:56;;;;;;;9.03;6.00;;;;;;;;;;5012700;28;20235;-88
2022/03/02 10:54:26;;;;;;;9.33;6.47;;;;;;;;;;5041656;28;20295;-89
2022/03/02 10:56:55;;;;;;;8.17;6.80;;;;;;;;;;5041803;28;20236;-90
2022/03/02 10:59:29;;;;;;;9.30;6.57;;;;;;;;;;5040850;28;20233;-89
2022/03/02 11:02:12;;;;;;;6.90;5.43;;;;;;;;;;5041007;28;20234;-90
2022/03/02 11:07:30;;;;;;;6.60;5.83;;;;;;;;;;5076127;22;20234;-90
2022/03/02 11:10:06;;;;;;;6.17;5.37;;;;;;;;;;5000201;28;20250;-90
2022/03/02 11:13:00;;;;;;;6.60;5.90;;;;;;;;;;5003708;28;20619;-90
2022/03/02 11:15:33;;;;;;;8.37;5.50;;;;;;;;;;5005529;28;20294;-89
2022/03/02 11:18:02;;;;;;;7.47;5.87;;;;;;;;;;5021922;28;20200;-90
2022/03/02 11:20:43;;;;;;;6.50;5.83;;;;;;;;;;5022923;28;20612;-89
2022/03/02 11:23:33;;;;;;;12.90;6.83;;;;;;;;;;5022432;28;20214;-90
2022/03/02 11:26:11;;;;;;;8.07;6.60;;;;;;;;;;5020155;28;20242;-89
2022/03/02 11:31:50;;;;;;;8.37;6.07;;;;;;;;;;4999098;28;20242;-91
2022/03/02 11:34:20;;;;;;;11.47;6.73;;;;;;;;;;5005248;28;20234;-88
2022/03/02 11:36:49;;;;;;;9.70;6.80;;;;;;;;;;5003243;28;20684;-88
2022/03/02 11:39:17;;;;;;;6.07;5.20;;;;;;;;;;5003005;28;20211;-90
2022/03/02 11:41:51;;;;;;;7.70;6.17;;;;;;;;;;5000337;28;20259;-90
2022/03/02 11:44:33;;;;;;;7.07;5.90;;;;;;;;;;5001447;28;20303;-90
2022/03/02 11:47:03;;;;;;;8.23;5.77;;;;;;;;;;4998864;28;20576;-90
2022/03/02 11:49:41;;;;;;;11.70;5.93;;;;;;;;;;5001039;28;20208;-90
2022/03/02 11:52:10;;;;;;;12.40;6.23;;;;;;;;;;4981389;28;20741;-90
2022/03/02 11:54:45;;;;;;;8.33;6.50;;;;;;;;;;5002656;28;20282;-89
2022/03/02 12:03:32;;;;;;;9.30;6.10;;;;;;;;;;5010313;28;20178;-90
2022/03/02 12:06:17;;;;;;;7.17;6.00;;;;;;;;;;5002061;28;20295;-91
2022/03/02 12:09:14;;;;;;;9.90;5.93;;;;;;;;;;5002899;28;20246;-90
2022/03/02 12:11:44;;;;;;;7.17;5.93;;;;;;;;;;5001082;28;20255;-89
2022/03/02 12:14:15;;;;;;;7.07;5.90;;;;;;;;;;5001425;28;20239;-89
2022/03/02 12:16:46;;;;;;;9.13;6.40;;;;;;;;;;5000105;28;20264;-89
2022/03/02 12:19:21;;;;;;;7.67;6.13;;;;;;;;;;4999463;28;20302;-89
2022/03/02 12:21:48;;;;;;;8.67;6.07;;;;;;;;;;5006790;28;20241;-89
2022/03/02 12:24:20;;;;;;;7.70;6.07;;;;;;;;;;5001671;28;20235;-91
2022/03/02 12:26:50;;;;;;;8.30;5.87;;;;;;;;;;5002903;28;20267;-89
2022/03/02 12:29:17;;;;;;;7.77;6.20;;;;;;;;;;5000704;28;20554;-90
2022/03/02 12:31:47;;;;;;;7.83;6.00;;;;;;;;;;4998370;28;20311;-90
2022/03/02 12:34:15;;;;;;;7.57;5.90;;;;;;;;;;4996099;28;20231;-88
2022/03/02 12:36:42;;;;;;;7.67;6.70;;;;;;;;;;4998477;28;20236;-88
2022/03/02 12:39:09;;;;;;;9.73;6.30;;;;;;;;;;4995676;28;20219;-89
2022/03/02 12:41:37;;;;;;;7.10;5.97;;;;;;;;;;4993679;28;20236;-89
2022/03/02 12:44:06;;;;;;;8.43;5.97;;;;;;;;;;4994047;28;20212;-88
2022/03/02 12:46:35;;;;;;;8.07;5.90;;;;;;;;;;4994559;28;20236;-89
2022/03/02 12:49:04;;;;;;;11.53;6.30;;;;;;;;;;4996255;28;20219;-87
2022/03/02 12:51:33;;;;;;;10.37;5.70;;;;;;;;;;4995363;28;20716;-90
2022/03/02 12:54:00;;;;;;;9.57;5.97;;;;;;;;;;4995111;28;20295;-88
2022/03/02 12:56:27;;;;;;;7.77;5.87;;;;;;;;;;5007040;28;20699;-88
2022/03/02 12:58:55;;;;;;;8.07;6.00;;;;;;;;;;5025949;28;20218;-88
2022/03/02 13:01:24;;;;;;;8.53;6.40;;;;;;;;;;5025182;28;20242;-86
2022/03/02 13:03:52;;;;;;;7.40;5.50;;;;;;;;;;5019962;28;20211;-84
2022/03/02 13:06:24;;;;;;;8.23;6.00;;;;;;;;;;5017011;28;20240;-85
2022/03/02 13:08:55;;;;;;;9.47;6.47;;;;;;;;;;5019199;28;20640;-85
2022/03/02 13:11:27;;;;;;;8.57;5.20;;;;;;;;;;5015640;28;20258;-86
2022/03/02 13:13:55;;;;;;;7.70;5.70;;;;;;;;;;5018002;28;20230;-85
2022/03/02 13:16:24;;;;;;;9.27;5.10;;;;;;;;;;5017611;28;20247;-85
2022/03/02 13:18:53;;;;;;;7.27;5.47;;;;;;;;;;5019022;28;20195;-86
2022/03/02 13:21:22;;;;;;;7.27;5.93;;;;;;;;;;5019533;28;20247;-86
2022/03/02 13:24:04;;;;;;;6.80;5.70;;;;;;;;;;5017148;28;20195;-87
2022/03/02 13:26:32;;;;;;;5.83;4.83;;;;;;;;;;5015256;28;20246;-86
2022/03/02 13:29:00;;;;;;;5.93;5.10;;;;;;;;;;5016033;28;20584;-86
2022/03/02 13:31:29;;;;;;;7.80;5.43;;;;;;;;;;5019907;28;20235;-86
2022/03/02 13:34:09;;;;;;;8.53;5.80;;;;;;;;;;5019049;28;20210;-86
2022/03/02 13:36:38;;;;;;;7.63;5.50;;;;;;;;;;5020826;28;20499;-85
2022/03/02 13:39:09;;;;;;;6.60;5.60;;;;;;;;;;5018461;28;20210;-87
2022/03/02 13:41:46;;;;;;;7.53;5.60;;;;;;;;;;5017807;28;20274;-85
2022/03/02 13:44:24;;;;;;;8.07;4.83;;;;;;;;;;5017199;28;20675;-84
2022/03/02 13:47:11;;;;;;;6.67;4.93;;;;;;;;;;5014881;28;20674;-84
2022/03/02 13:49:53;;;;;;;5.33;4.83;;;;;;;;;;5016437;28;20636;-86
2022/03/02 13:52:23;;;;;;;6.80;4.80;;;;;;;;;;5014081;28;20297;-86
2022/03/02 13:54:51;;;;;;;7.07;5.27;;;;;;;;;;5014331;28;20707;-86
2022/03/02 13:57:18;;;;;;;6.20;4.93;;;;;;;;;;5012630;28;20324;-86
2022/03/02 13:59:45;;;;;;;6.57;5.13;;;;;;;;;;5009933;28;20214;-87
2022/03/02 14:02:13;;;;;;;7.07;5.00;;;;;;;;;;5019339;28;20239;-87
2022/03/02 14:04:43;;;;;;;6.23;5.23;;;;;;;;;;5019047;28;20214;-87
2022/03/02 14:07:10;;;;;;;5.47;4.90;;;;;;;;;;5014528;28;20235;-87
2022/03/02 14:09:39;;;;;;;8.80;5.33;;;;;;;;;;5016080;28;20286;-86
2022/03/02 14:12:07;;;;;;;7.27;5.80;;;;;;;;;;4993746;28;20722;-87
2022/03/02 14:14:35;;;;;;;5.80;5.13;;;;;;;;;;5005437;28;20227;-85
2022/03/02 14:17:03;;;;;;;6.07;4.90;;;;;;;;;;5006616;28;20231;-86
2022/03/02 14:19:35;;;;;;;6.03;4.70;;;;;;;;;;5014284;28;20222;-86
2022/03/02 14:22:05;;;;;;;6.20;5.10;;;;;;;;;;5013169;28;20242;-86
2022/03/02 14:24:34;;;;;;;6.73;5.53;;;;;;;;;;5014074;28;20211;-86
2022/03/02 14:27:05;;;;;;;7.30;5.57;;;;;;;;;;5012712;28;20243;-87
2022/03/02 14:29:33;;;;;;;5.70;5.00;;;;;;;;;;4995123;28;20464;-86
2022/03/02 14:32:01;;;;;;;5.37;4.80;;;;;;;;;;4993589;28;20239;-86
2022/03/02 14:34:44;;;;;;;8.73;5.30;;;;;;;;;;4998991;28;20790;-85
2022/03/02 14:37:12;;;;;;;6.70;5.00;;;;;;;;;;5011991;28;20600;-86
2022/03/02 14:39:58;;;;;;;6.60;5.40;;;;;;;;;;5014032;28;20218;-85
2022/03/02 14:42:27;;;;;;;7.27;4.90;;;;;;;;;;4985154;28;20228;-85
2022/03/02 14:45:11;;;;;;;5.50;5.00;;;;;;;;;;4988919;28;20656;-87
2022/03/02 14:47:39;;;;;;;6.70;5.23;;;;;;;;;;4992752;28;20699;-85
2022/03/02 14:50:15;;;;;;;6.53;4.90;;;;;;;;;;4994599;28;20613;-86
2022/03/02 14:52:42;;;;;;;6.63;5.37;;;;;;;;;;5022736;28;20222;-85
2022/03/02 14:55:20;;;;;;;8.13;5.47;;;;;;;;;;5033215;28;20660;-84
2022/03/02 14:57:49;;;;;;;8.57;4.80;;;;;;;;;;5016674;28;20206;-86